Dunstable, United Kingdom
Current Conditions -  °F | °C
As of 8:50 AM on Friday 24 Oct 2014 (Local Time) from EGGW Reporting Station
Broken Clouds Broken Clouds  
Wind Chill: 55°   Ceiling: 500
Heat Index: 55°   Visibility: 6mi
Dew Point: 55°   Wind: 5mph
Humidity: 100%   Direction: 200°SSW
Pressure: 29.94"   Gusts: NA
Location:  51.89°N, 0.52°W
Report Text: EGGW 240750Z 20004KT 150V230 9000 BKN005 13/13 Q1014
Loading
Personal Weather Stations






























Interactive Weather Map
Tropical Storm Tracking
New forecast layout! Learn more

10-Day Weather Forecast

Advertisements
Track Severe Weather on mobile